Jay Michael — WDD2051 — position and weather

sailwx.info

Track history (hours):
 
Tides and Currents Weather Stations Pressure Air Temp Water Temp Dewpoint Dewpoint Depression Visibility Wind Speed Wind Dir Waves Ship Positions

Jay Michael

Owner: Sterling Equipment Inc., Quincy, MA. More information available from US FCC via Universal Licensing System and Coast Guard Vessel Documentation Center.

Last reported at 2015-Mar-31 21:33 UTC. Time now 2015-Mar-31 21:59 UTC.
Position N 40°38' W 074°09'.

Length 21 m.

Type: Tug. MMSI: 367110280.

Date/timePositionNaut miles runAvg speedWind from/ knotsBaromVisibWave heightAir tempDewpointWater temp
2015-Mar-31 21:33N 40°38' W 074°09'0 0.0
2015-Mar-31 20:33N 40°38' W 074°09'1 1.1
2015-Mar-31 19:33N 40°39' W 074°11'1 1.5
2015-Mar-31 18:33N 40°39' W 074°09'1 0.8
2015-Mar-31 17:34N 40°38' W 074°09'0 0.0
2015-Mar-31 16:34N 40°38' W 074°09'1 0.7
2015-Mar-31 15:33N 40°39' W 074°09'0 0.2
2015-Mar-31 14:33N 40°39' W 074°09'0 0.2
2015-Mar-31 13:33N 40°39' W 074°09'1 0.8
2015-Mar-31 12:33N 40°38' W 074°09'0 0.0
2015-Mar-31 11:34N 40°38' W 074°09'0 0.0
2015-Mar-31 10:25N 40°38' W 074°09'0 0.0
2015-Mar-31 07:07N 40°38' W 074°09'0 0.0
2015-Mar-31 06:15N 40°38' W 074°09'0 0.0
2015-Mar-31 04:25N 40°38' W 074°09'0 0.0
2015-Mar-31 03:32N 40°38' W 074°09'0 0.0
2015-Mar-31 02:22N 40°38' W 074°09'0 0.0
2015-Mar-31 01:33N 40°38' W 074°09'0 0.0
2015-Mar-31 00:33N 40°38' W 074°09'0 0.0
2015-Mar-30 23:32N 40°38' W 074°09'0 0.0
2015-Mar-30 22:25N 40°38' W 074°09'0 0.0
2015-Mar-30 21:28N 40°38' W 074°09'1 0.8
2015-Mar-30 20:32N 40°39' W 074°09'0 0.0
2015-Mar-30 19:33N 40°39' W 074°09'1 0.7
2015-Mar-30 18:34N 40°38' W 074°09'4 4.0
2015-Mar-30 17:33N 40°39' W 074°04'2 1.6
2015-Mar-30 16:33N 40°41' W 074°04'2 2.3
2015-Mar-30 15:33N 40°39' W 074°06'3 2.9
2015-Mar-30 14:33N 40°38' W 074°09'0 0.0
2015-Mar-30 13:34N 40°38' W 074°09'0 0.0
2015-Mar-30 12:33N 40°38' W 074°09'0 0.0
2015-Mar-30 11:34N 40°38' W 074°09'0 0.1
2015-Mar-30 10:33N 40°38' W 074°09'2 2.3
2015-Mar-30 09:34N 40°38' W 074°12'3 2.7
2015-Mar-30 08:31N 40°39' W 074°09'0 0.0
2015-Mar-30 07:17N 40°39' W 074°09'0 0.0
2015-Mar-30 06:33N 40°39' W 074°09'0 0.0
2015-Mar-30 05:33N 40°39' W 074°09'0 0.0
2015-Mar-30 04:33N 40°39' W 074°09'0 0.0
2015-Mar-30 03:33N 40°39' W 074°09'0 0.0
2015-Mar-30 02:33N 40°39' W 074°09'0 0.0
2015-Mar-30 01:33N 40°39' W 074°09'0 0.0
2015-Mar-30 00:34N 40°39' W 074°09'0 0.0
2015-Mar-29 23:32N 40°39' W 074°09'0 0.0
2015-Mar-29 22:33N 40°39' W 074°09'0 0.1
2015-Mar-29 21:33N 40°39' W 074°09'4 4.2
2015-Mar-29 20:34N 40°41' W 074°04'4 3.9
2015-Mar-29 19:33N 40°39' W 074°08'3 2.7
2015-Mar-29 18:34N 40°38' W 074°12'0 0.0
2015-Mar-29 17:33N 40°38' W 074°12'0 0.0
2015-Mar-29 16:33N 40°38' W 074°12'0 0.0
2015-Mar-29 15:33N 40°38' W 074°12'0 0.0
2015-Mar-29 14:33N 40°38' W 074°12'0 0.0
2015-Mar-29 13:33N 40°38' W 074°12'2 1.6
2015-Mar-29 12:33N 40°39' W 074°10'1 0.8
2015-Mar-29 11:33N 40°39' W 074°09'0 0.0
2015-Mar-29 10:33N 40°39' W 074°09'0 0.0
2015-Mar-29 09:33N 40°39' W 074°09'0 0.0
2015-Mar-29 08:33N 40°39' W 074°09'0 0.0
2015-Mar-29 07:33N 40°39' W 074°09'0 0.0
2015-Mar-29 06:33N 40°39' W 074°09'0 0.0
2015-Mar-29 05:33N 40°39' W 074°09'0 0.0
2015-Mar-29 04:22N 40°39' W 074°09'0 0.0
2015-Mar-29 03:33N 40°39' W 074°09'0 0.0
2015-Mar-29 02:33N 40°39' W 074°09'0 0.0
2015-Mar-29 01:33N 40°39' W 074°09'0 0.0
2015-Mar-29 00:33N 40°39' W 074°09'0 0.0
2015-Mar-28 23:33N 40°39' W 074°09'0 0.0
2015-Mar-28 22:33N 40°39' W 074°09'0 0.0
2015-Mar-28 21:33N 40°39' W 074°09'0 0.0
2015-Mar-28 20:33N 40°39' W 074°09'0 0.0
2015-Mar-28 19:33N 40°39' W 074°09'0 0.0
2015-Mar-28 18:33N 40°39' W 074°09'0 0.0
2015-Mar-28 17:33N 40°39' W 074°09'0 0.5
2015-Mar-28 16:33N 40°39' W 074°09'0 0.1
2015-Mar-28 15:33N 40°38' W 074°09'1 1.1
2015-Mar-28 14:32N 40°39' W 074°11'1 1.0
2015-Mar-28 13:33N 40°38' W 074°09'2 1.8
2015-Mar-28 12:33N 40°38' W 074°12'0 0.0
2015-Mar-28 11:33N 40°38' W 074°12'0 0.0
2015-Mar-28 10:33N 40°38' W 074°12'0 0.0
2015-Mar-28 09:33N 40°38' W 074°12'0 0.0
2015-Mar-28 08:33N 40°38' W 074°12'0 0.0
2015-Mar-28 07:33N 40°38' W 074°12'0 0.0
2015-Mar-28 06:33N 40°38' W 074°12'0 0.0
2015-Mar-28 05:33N 40°38' W 074°12'0 0.0
2015-Mar-28 04:33N 40°38' W 074°12'0 0.0
2015-Mar-28 03:33N 40°38' W 074°12'0 0.0
2015-Mar-28 02:33N 40°38' W 074°12'0 0.0
2015-Mar-28 01:33N 40°38' W 074°12'0 0.0
2015-Mar-28 00:33N 40°38' W 074°12'0 0.0
2015-Mar-27 23:33N 40°38' W 074°12'0 0.0
2015-Mar-27 22:33N 40°38' W 074°12'0 0.0
2015-Mar-27 21:33N 40°38' W 074°12'0 0.0
2015-Mar-27 20:33N 40°38' W 074°12'0 0.0
2015-Mar-27 19:33N 40°38' W 074°12'1 0.6
2015-Mar-27 18:33N 40°38' W 074°12'0 0.0
2015-Mar-27 17:33N 40°38' W 074°12'0 0.0
2015-Mar-27 16:33N 40°38' W 074°12'1 0.6
2015-Mar-27 15:33N 40°38' W 074°12'2 1.8
2015-Mar-27 14:33N 40°39' W 074°09'1 0.5
2015-Mar-27 13:33N 40°39' W 074°09'2 2.4
2015-Mar-27 12:33N 40°38' W 074°12'0 0.0
2015-Mar-27 11:33N 40°38' W 074°12'0 0.0
2015-Mar-27 10:25N 40°38' W 074°12'0 0.0
2015-Mar-27 09:32N 40°38' W 074°12'0 0.0
2015-Mar-27 08:32N 40°38' W 074°12'0 0.0
2015-Mar-27 07:33N 40°38' W 074°12'0 0.0
2015-Mar-27 06:20N 40°38' W 074°12'0 0.0
2015-Mar-27 05:24N 40°38' W 074°12'0 0.0
2015-Mar-27 04:33N 40°38' W 074°12'0 0.0
2015-Mar-27 03:31N 40°38' W 074°12'0 0.0
2015-Mar-27 02:11N 40°38' W 074°12'0 0.0
2015-Mar-27 01:07N 40°38' W 074°12'0 0.0
2015-Mar-27 00:31N 40°38' W 074°12'0 0.0
2015-Mar-26 23:31N 40°38' W 074°12'0 0.0
2015-Mar-26 22:28N 40°38' W 074°12'0 0.0
2015-Mar-26 21:25N 40°38' W 074°12'0 0.0
2015-Mar-26 20:29N 40°38' W 074°12'0 0.0
2015-Mar-26 19:33N 40°38' W 074°12'0 0.0
2015-Mar-26 18:33N 40°38' W 074°12'1 0.5
2015-Mar-26 17:30N 40°39' W 074°11'1 1.4
2015-Mar-26 16:32N 40°39' W 074°10'0 0.3
2015-Mar-26 15:33N 40°39' W 074°09'2 2.1
2015-Mar-26 14:33N 40°38' W 074°12'0 0.0
2015-Mar-26 13:30N 40°38' W 074°12'0 0.0
2015-Mar-26 12:30N 40°38' W 074°12'0 0.0
2015-Mar-26 11:33N 40°38' W 074°12'0 0.0
2015-Mar-26 10:33N 40°38' W 074°12'0 0.0
2015-Mar-26 09:33N 40°38' W 074°12'0 0.0
2015-Mar-26 08:31N 40°38' W 074°12'0 0.0
2015-Mar-26 07:33N 40°38' W 074°12'0 0.0
2015-Mar-26 06:31N 40°38' W 074°12'0 0.0
2015-Mar-26 05:15N 40°38' W 074°12'0 0.0
2015-Mar-26 04:32N 40°38' W 074°12'0 0.0
2015-Mar-26 03:31N 40°38' W 074°12'0 0.0
2015-Mar-26 02:33N 40°38' W 074°12'0 0.0
2015-Mar-26 01:33N 40°38' W 074°12'0 0.0
2015-Mar-26 00:33N 40°38' W 074°12'0 0.0
2015-Mar-25 23:32N 40°38' W 074°12'0 0.0
2015-Mar-25 22:33N 40°38' W 074°12'0 0.0
2015-Mar-25 21:33N 40°38' W 074°12'0 0.0
2015-Mar-25 20:33N 40°38' W 074°12'0 0.0
2015-Mar-25 19:33N 40°38' W 074°12'0 0.0
2015-Mar-25 18:32N 40°38' W 074°12'0 0.0
2015-Mar-25 17:33N 40°38' W 074°12'0 0.0
2015-Mar-25 16:33N 40°38' W 074°12'0 0.0
2015-Mar-25 15:33N 40°38' W 074°12'0 0.0
2015-Mar-25 14:33N 40°38' W 074°12'0 0.0
2015-Mar-25 13:27N 40°38' W 074°12'0 0.0
2015-Mar-25 12:33N 40°38' W 074°12'0 0.0
2015-Mar-25 11:19N 40°38' W 074°12'0 0.0
2015-Mar-25 10:28N 40°38' W 074°12'0 0.0
2015-Mar-25 09:28N 40°38' W 074°12'0 0.0
2015-Mar-25 08:33N 40°38' W 074°12'0 0.0
2015-Mar-25 07:33N 40°38' W 074°12'0 0.0
2015-Mar-25 06:32N 40°38' W 074°12'0 0.0
2015-Mar-25 05:13N 40°38' W 074°12'0 0.0
2015-Mar-25 04:33N 40°38' W 074°12'0 0.0
2015-Mar-25 03:28N 40°38' W 074°12'0 0.0
2015-Mar-25 02:33N 40°38' W 074°12'0 0.0
2015-Mar-25 01:33N 40°38' W 074°12'0 0.0
2015-Mar-25 00:33N 40°38' W 074°12'0 0.0
2015-Mar-24 23:33N 40°38' W 074°12'0 0.0
2015-Mar-24 22:33N 40°38' W 074°12'0 0.0
2015-Mar-24 21:33N 40°38' W 074°12'0 0.0
2015-Mar-24 20:33N 40°38' W 074°12'0 0.0
2015-Mar-24 19:34N 40°38' W 074°12'0 0.0
2015-Mar-24 18:33N 40°38' W 074°12'2 1.6
2015-Mar-24 17:20N 40°38' W 074°09'2 3.1
2015-Mar-24 16:34N 40°39' W 074°06'3 2.5
2015-Mar-24 15:34N 40°41' W 074°04'5 4.6
2015-Mar-24 14:31N 40°39' W 074°10'1 1.6
2015-Mar-24 13:33N 40°38' W 074°12'0 0.0
2015-Mar-24 12:33N 40°38' W 074°12'6 6.2
2015-Mar-24 11:33N 40°40' W 074°04'1 1.2
2015-Mar-24 10:34N 40°41' W 074°04'3 3.0
2015-Mar-24 09:33N 40°39' W 074°07'1 1.5
2015-Mar-24 08:33N 40°39' W 074°09'0 0.0
2015-Mar-24 07:33N 40°39' W 074°09'0 0.0
2015-Mar-24 06:33N 40°39' W 074°09'0 0.0
2015-Mar-24 05:33N 40°39' W 074°09'0 0.0
2015-Mar-24 04:33N 40°39' W 074°09'0 0.0
2015-Mar-24 03:33N 40°39' W 074°09'0 0.0
2015-Mar-24 02:33N 40°39' W 074°09'0 0.0
2015-Mar-24 01:33N 40°39' W 074°09'0 0.0
2015-Mar-24 00:33N 40°39' W 074°09'0 0.0
2015-Mar-23 23:31N 40°39' W 074°09'0 0.0
2015-Mar-23 22:32N 40°39' W 074°09'0 0.0
2015-Mar-23 21:28N 40°39' W 074°09'2 2.6
2015-Mar-23 20:33N 40°38' W 074°12'0 0.0
2015-Mar-23 19:13N 40°38' W 074°12'0 0.0
2015-Mar-23 18:31N 40°38' W 074°12'0 0.0
2015-Mar-23 17:30N 40°38' W 074°12'0 0.0
2015-Mar-23 16:33N 40°38' W 074°12'0 0.0
2015-Mar-23 15:32N 40°38' W 074°12'0 0.0
2015-Mar-23 14:33N 40°38' W 074°12'0 0.0
2015-Mar-23 13:33N 40°38' W 074°12'0 0.0
2015-Mar-23 12:33N 40°38' W 074°12'0 0.0
2015-Mar-23 11:33N 40°38' W 074°12'0 0.0
2015-Mar-23 10:33N 40°38' W 074°12'0 0.0
2015-Mar-23 09:33N 40°38' W 074°12'0 0.0
2015-Mar-23 08:32N 40°38' W 074°12'0 0.0
2015-Mar-23 07:33N 40°38' W 074°12'0 0.0
2015-Mar-23 06:33N 40°38' W 074°12'0 0.0
2015-Mar-23 05:33N 40°38' W 074°12'0 0.0
2015-Mar-23 04:33N 40°38' W 074°12'0 0.0
2015-Mar-23 03:21N 40°38' W 074°12'0 0.0
2015-Mar-23 02:32N 40°38' W 074°12'0 0.0
2015-Mar-23 01:26N 40°38' W 074°12'0 0.0
2015-Mar-23 00:33N 40°38' W 074°12'0 0.0
2015-Mar-22 23:33N 40°38' W 074°12'0 0.0
2015-Mar-22 22:33N 40°38' W 074°12'0 0.0
2015-Mar-22 21:33N 40°38' W 074°12'0 0.0
2015-Mar-22 20:30N 40°38' W 074°12'0 0.0
2015-Mar-22 19:25N 40°38' W 074°12'0 0.0
2015-Mar-22 18:33N 40°38' W 074°12'0 0.0
2015-Mar-22 17:33N 40°38' W 074°12'0 0.0
2015-Mar-22 16:33N 40°38' W 074°12'0 0.0
2015-Mar-22 15:32N 40°38' W 074°12'0 0.0
2015-Mar-22 14:32N 40°38' W 074°12'0 0.0
2015-Mar-22 13:33N 40°38' W 074°12'0 0.0
2015-Mar-22 12:33N 40°38' W 074°12'0 0.0
2015-Mar-22 11:33N 40°38' W 074°12'0 0.0
2015-Mar-22 10:33N 40°38' W 074°12'0 0.0
2015-Mar-22 09:33N 40°38' W 074°12'0 0.0
2015-Mar-22 08:33N 40°38' W 074°12'0 0.0
2015-Mar-22 07:33N 40°38' W 074°12'0 0.0
2015-Mar-22 06:33N 40°38' W 074°12'0 0.0
2015-Mar-22 05:33N 40°38' W 074°12'0 0.0
2015-Mar-22 04:24N 40°38' W 074°12'0 0.0
2015-Mar-22 03:33N 40°38' W 074°12'0 0.0
2015-Mar-22 02:33N 40°38' W 074°12'0 0.0
2015-Mar-22 01:33N 40°38' W 074°12'0 0.0
2015-Mar-22 00:33N 40°38' W 074°12'0 0.0
2015-Mar-21 23:34N 40°38' W 074°12'0 0.0
2015-Mar-21 22:33N 40°38' W 074°12'  
Track history (hours):
 
Tides and Currents Weather Stations Pressure Air Temp Water Temp Dewpoint Dewpoint Depression Visibility Wind Speed Wind Dir Waves Ship Positions

Jay Michael

Owner: Sterling Equipment Inc., Quincy, MA. More information available from US FCC via Universal Licensing System and Coast Guard Vessel Documentation Center.

Last reported at 2015-Mar-31 21:33 UTC. Time now 2015-Mar-31 21:59 UTC.
Position N 40°38' W 074°09'.

Length 21 m.

Type: Tug. MMSI: 367110280.

Date/timePositionNaut miles runAvg speedWind from/ knotsBaromVisibWave heightAir tempDewpointWater temp
2015-Mar-31 21:33N 40°38' W 074°09'0 0.0
2015-Mar-31 20:33N 40°38' W 074°09'1 1.1
2015-Mar-31 19:33N 40°39' W 074°11'1 1.5
2015-Mar-31 18:33N 40°39' W 074°09'1 0.8
2015-Mar-31 17:34N 40°38' W 074°09'0 0.0
2015-Mar-31 16:34N 40°38' W 074°09'1 0.7
2015-Mar-31 15:33N 40°39' W 074°09'0 0.2
2015-Mar-31 14:33N 40°39' W 074°09'0 0.2
2015-Mar-31 13:33N 40°39' W 074°09'1 0.8
2015-Mar-31 12:33N 40°38' W 074°09'0 0.0
2015-Mar-31 11:34N 40°38' W 074°09'0 0.0
2015-Mar-31 10:25N 40°38' W 074°09'0 0.0
2015-Mar-31 07:07N 40°38' W 074°09'0 0.0
2015-Mar-31 06:15N 40°38' W 074°09'0 0.0
2015-Mar-31 04:25N 40°38' W 074°09'0 0.0
2015-Mar-31 03:32N 40°38' W 074°09'0 0.0
2015-Mar-31 02:22N 40°38' W 074°09'0 0.0
2015-Mar-31 01:33N 40°38' W 074°09'0 0.0
2015-Mar-31 00:33N 40°38' W 074°09'0 0.0
2015-Mar-30 23:32N 40°38' W 074°09'0 0.0
2015-Mar-30 22:25N 40°38' W 074°09'0 0.0
2015-Mar-30 21:28N 40°38' W 074°09'1 0.8
2015-Mar-30 20:32N 40°39' W 074°09'0 0.0
2015-Mar-30 19:33N 40°39' W 074°09'1 0.7
2015-Mar-30 18:34N 40°38' W 074°09'4 4.0
2015-Mar-30 17:33N 40°39' W 074°04'2 1.6
2015-Mar-30 16:33N 40°41' W 074°04'2 2.3
2015-Mar-30 15:33N 40°39' W 074°06'3 2.9
2015-Mar-30 14:33N 40°38' W 074°09'0 0.0
2015-Mar-30 13:34N 40°38' W 074°09'0 0.0
2015-Mar-30 12:33N 40°38' W 074°09'0 0.0
2015-Mar-30 11:34N 40°38' W 074°09'0 0.1
2015-Mar-30 10:33N 40°38' W 074°09'2 2.3
2015-Mar-30 09:34N 40°38' W 074°12'3 2.7
2015-Mar-30 08:31N 40°39' W 074°09'0 0.0
2015-Mar-30 07:17N 40°39' W 074°09'0 0.0
2015-Mar-30 06:33N 40°39' W 074°09'0 0.0
2015-Mar-30 05:33N 40°39' W 074°09'0 0.0
2015-Mar-30 04:33N 40°39' W 074°09'0 0.0
2015-Mar-30 03:33N 40°39' W 074°09'0 0.0
2015-Mar-30 02:33N 40°39' W 074°09'0 0.0
2015-Mar-30 01:33N 40°39' W 074°09'0 0.0
2015-Mar-30 00:34N 40°39' W 074°09'0 0.0
2015-Mar-29 23:32N 40°39' W 074°09'0 0.0
2015-Mar-29 22:33N 40°39' W 074°09'0 0.1
2015-Mar-29 21:33N 40°39' W 074°09'4 4.2
2015-Mar-29 20:34N 40°41' W 074°04'4 3.9
2015-Mar-29 19:33N 40°39' W 074°08'3 2.7
2015-Mar-29 18:34N 40°38' W 074°12'0 0.0
2015-Mar-29 17:33N 40°38' W 074°12'0 0.0
2015-Mar-29 16:33N 40°38' W 074°12'0 0.0
2015-Mar-29 15:33N 40°38' W 074°12'0 0.0
2015-Mar-29 14:33N 40°38' W 074°12'0 0.0
2015-Mar-29 13:33N 40°38' W 074°12'2 1.6
2015-Mar-29 12:33N 40°39' W 074°10'1 0.8
2015-Mar-29 11:33N 40°39' W 074°09'0 0.0
2015-Mar-29 10:33N 40°39' W 074°09'0 0.0
2015-Mar-29 09:33N 40°39' W 074°09'0 0.0
2015-Mar-29 08:33N 40°39' W 074°09'0 0.0
2015-Mar-29 07:33N 40°39' W 074°09'0 0.0
2015-Mar-29 06:33N 40°39' W 074°09'0 0.0
2015-Mar-29 05:33N 40°39' W 074°09'0 0.0
2015-Mar-29 04:22N 40°39' W 074°09'0 0.0
2015-Mar-29 03:33N 40°39' W 074°09'0 0.0
2015-Mar-29 02:33N 40°39' W 074°09'0 0.0
2015-Mar-29 01:33N 40°39' W 074°09'0 0.0
2015-Mar-29 00:33N 40°39' W 074°09'0 0.0
2015-Mar-28 23:33N 40°39' W 074°09'0 0.0
2015-Mar-28 22:33N 40°39' W 074°09'0 0.0
2015-Mar-28 21:33N 40°39' W 074°09'0 0.0
2015-Mar-28 20:33N 40°39' W 074°09'0 0.0
2015-Mar-28 19:33N 40°39' W 074°09'0 0.0
2015-Mar-28 18:33N 40°39' W 074°09'0 0.0
2015-Mar-28 17:33N 40°39' W 074°09'0 0.5
2015-Mar-28 16:33N 40°39' W 074°09'0 0.1
2015-Mar-28 15:33N 40°38' W 074°09'1 1.1
2015-Mar-28 14:32N 40°39' W 074°11'1 1.0
2015-Mar-28 13:33N 40°38' W 074°09'2 1.8
2015-Mar-28 12:33N 40°38' W 074°12'0 0.0
2015-Mar-28 11:33N 40°38' W 074°12'0 0.0
2015-Mar-28 10:33N 40°38' W 074°12'0 0.0
2015-Mar-28 09:33N 40°38' W 074°12'0 0.0
2015-Mar-28 08:33N 40°38' W 074°12'0 0.0
2015-Mar-28 07:33N 40°38' W 074°12'0 0.0
2015-Mar-28 06:33N 40°38' W 074°12'0 0.0
2015-Mar-28 05:33N 40°38' W 074°12'0 0.0
2015-Mar-28 04:33N 40°38' W 074°12'0 0.0
2015-Mar-28 03:33N 40°38' W 074°12'0 0.0
2015-Mar-28 02:33N 40°38' W 074°12'0 0.0
2015-Mar-28 01:33N 40°38' W 074°12'0 0.0
2015-Mar-28 00:33N 40°38' W 074°12'0 0.0
2015-Mar-27 23:33N 40°38' W 074°12'0 0.0
2015-Mar-27 22:33N 40°38' W 074°12'0 0.0
2015-Mar-27 21:33N 40°38' W 074°12'0 0.0
2015-Mar-27 20:33N 40°38' W 074°12'0 0.0
2015-Mar-27 19:33N 40°38' W 074°12'1 0.6
2015-Mar-27 18:33N 40°38' W 074°12'0 0.0
2015-Mar-27 17:33N 40°38' W 074°12'0 0.0
2015-Mar-27 16:33N 40°38' W 074°12'1 0.6
2015-Mar-27 15:33N 40°38' W 074°12'2 1.8
2015-Mar-27 14:33N 40°39' W 074°09'1 0.5
2015-Mar-27 13:33N 40°39' W 074°09'2 2.4
2015-Mar-27 12:33N 40°38' W 074°12'0 0.0
2015-Mar-27 11:33N 40°38' W 074°12'0 0.0
2015-Mar-27 10:25N 40°38' W 074°12'0 0.0
2015-Mar-27 09:32N 40°38' W 074°12'0 0.0
2015-Mar-27 08:32N 40°38' W 074°12'0 0.0
2015-Mar-27 07:33N 40°38' W 074°12'0 0.0
2015-Mar-27 06:20N 40°38' W 074°12'0 0.0
2015-Mar-27 05:24N 40°38' W 074°12'0 0.0
2015-Mar-27 04:33N 40°38' W 074°12'0 0.0
2015-Mar-27 03:31N 40°38' W 074°12'0 0.0
2015-Mar-27 02:11N 40°38' W 074°12'0 0.0
2015-Mar-27 01:07N 40°38' W 074°12'0 0.0
2015-Mar-27 00:31N 40°38' W 074°12'0 0.0
2015-Mar-26 23:31N 40°38' W 074°12'0 0.0
2015-Mar-26 22:28N 40°38' W 074°12'0 0.0
2015-Mar-26 21:25N 40°38' W 074°12'0 0.0
2015-Mar-26 20:29N 40°38' W 074°12'0 0.0
2015-Mar-26 19:33N 40°38' W 074°12'0 0.0
2015-Mar-26 18:33N 40°38' W 074°12'1 0.5
2015-Mar-26 17:30N 40°39' W 074°11'1 1.4
2015-Mar-26 16:32N 40°39' W 074°10'0 0.3
2015-Mar-26 15:33N 40°39' W 074°09'2 2.1
2015-Mar-26 14:33N 40°38' W 074°12'0 0.0
2015-Mar-26 13:30N 40°38' W 074°12'0 0.0
2015-Mar-26 12:30N 40°38' W 074°12'0 0.0
2015-Mar-26 11:33N 40°38' W 074°12'0 0.0
2015-Mar-26 10:33N 40°38' W 074°12'0 0.0
2015-Mar-26 09:33N 40°38' W 074°12'0 0.0
2015-Mar-26 08:31N 40°38' W 074°12'0 0.0
2015-Mar-26 07:33N 40°38' W 074°12'0 0.0
2015-Mar-26 06:31N 40°38' W 074°12'0 0.0
2015-Mar-26 05:15N 40°38' W 074°12'0 0.0
2015-Mar-26 04:32N 40°38' W 074°12'0 0.0
2015-Mar-26 03:31N 40°38' W 074°12'0 0.0
2015-Mar-26 02:33N 40°38' W 074°12'0 0.0
2015-Mar-26 01:33N 40°38' W 074°12'0 0.0
2015-Mar-26 00:33N 40°38' W 074°12'0 0.0
2015-Mar-25 23:32N 40°38' W 074°12'0 0.0
2015-Mar-25 22:33N 40°38' W 074°12'0 0.0
2015-Mar-25 21:33N 40°38' W 074°12'0 0.0
2015-Mar-25 20:33N 40°38' W 074°12'0 0.0
2015-Mar-25 19:33N 40°38' W 074°12'0 0.0
2015-Mar-25 18:32N 40°38' W 074°12'0 0.0
2015-Mar-25 17:33N 40°38' W 074°12'0 0.0
2015-Mar-25 16:33N 40°38' W 074°12'0 0.0
2015-Mar-25 15:33N 40°38' W 074°12'0 0.0
2015-Mar-25 14:33N 40°38' W 074°12'0 0.0
2015-Mar-25 13:27N 40°38' W 074°12'0 0.0
2015-Mar-25 12:33N 40°38' W 074°12'0 0.0
2015-Mar-25 11:19N 40°38' W 074°12'0 0.0
2015-Mar-25 10:28N 40°38' W 074°12'0 0.0
2015-Mar-25 09:28N 40°38' W 074°12'0 0.0
2015-Mar-25 08:33N 40°38' W 074°12'0 0.0
2015-Mar-25 07:33N 40°38' W 074°12'0 0.0
2015-Mar-25 06:32N 40°38' W 074°12'0 0.0
2015-Mar-25 05:13N 40°38' W 074°12'0 0.0
2015-Mar-25 04:33N 40°38' W 074°12'0 0.0
2015-Mar-25 03:28N 40°38' W 074°12'0 0.0
2015-Mar-25 02:33N 40°38' W 074°12'0 0.0
2015-Mar-25 01:33N 40°38' W 074°12'0 0.0
2015-Mar-25 00:33N 40°38' W 074°12'0 0.0
2015-Mar-24 23:33N 40°38' W 074°12'0 0.0
2015-Mar-24 22:33N 40°38' W 074°12'0 0.0
2015-Mar-24 21:33N 40°38' W 074°12'0 0.0
2015-Mar-24 20:33N 40°38' W 074°12'0 0.0
2015-Mar-24 19:34N 40°38' W 074°12'0 0.0
2015-Mar-24 18:33N 40°38' W 074°12'2 1.6
2015-Mar-24 17:20N 40°38' W 074°09'2 3.1
2015-Mar-24 16:34N 40°39' W 074°06'3 2.5
2015-Mar-24 15:34N 40°41' W 074°04'5 4.6
2015-Mar-24 14:31N 40°39' W 074°10'1 1.6
2015-Mar-24 13:33N 40°38' W 074°12'0 0.0
2015-Mar-24 12:33N 40°38' W 074°12'6 6.2
2015-Mar-24 11:33N 40°40' W 074°04'1 1.2
2015-Mar-24 10:34N 40°41' W 074°04'3 3.0
2015-Mar-24 09:33N 40°39' W 074°07'1 1.5
2015-Mar-24 08:33N 40°39' W 074°09'0 0.0
2015-Mar-24 07:33N 40°39' W 074°09'0 0.0
2015-Mar-24 06:33N 40°39' W 074°09'0 0.0
2015-Mar-24 05:33N 40°39' W 074°09'0 0.0
2015-Mar-24 04:33N 40°39' W 074°09'0 0.0
2015-Mar-24 03:33N 40°39' W 074°09'0 0.0
2015-Mar-24 02:33N 40°39' W 074°09'0 0.0
2015-Mar-24 01:33N 40°39' W 074°09'0 0.0
2015-Mar-24 00:33N 40°39' W 074°09'0 0.0
2015-Mar-23 23:31N 40°39' W 074°09'0 0.0
2015-Mar-23 22:32N 40°39' W 074°09'0 0.0
2015-Mar-23 21:28N 40°39' W 074°09'2 2.6
2015-Mar-23 20:33N 40°38' W 074°12'0 0.0
2015-Mar-23 19:13N 40°38' W 074°12'0 0.0
2015-Mar-23 18:31N 40°38' W 074°12'0 0.0
2015-Mar-23 17:30N 40°38' W 074°12'0 0.0
2015-Mar-23 16:33N 40°38' W 074°12'0 0.0
2015-Mar-23 15:32N 40°38' W 074°12'0 0.0
2015-Mar-23 14:33N 40°38' W 074°12'0 0.0
2015-Mar-23 13:33N 40°38' W 074°12'0 0.0
2015-Mar-23 12:33N 40°38' W 074°12'0 0.0
2015-Mar-23 11:33N 40°38' W 074°12'0 0.0
2015-Mar-23 10:33N 40°38' W 074°12'0 0.0
2015-Mar-23 09:33N 40°38' W 074°12'0 0.0
2015-Mar-23 08:32N 40°38' W 074°12'0 0.0
2015-Mar-23 07:33N 40°38' W 074°12'0 0.0
2015-Mar-23 06:33N 40°38' W 074°12'0 0.0
2015-Mar-23 05:33N 40°38' W 074°12'0 0.0
2015-Mar-23 04:33N 40°38' W 074°12'0 0.0
2015-Mar-23 03:21N 40°38' W 074°12'0 0.0
2015-Mar-23 02:32N 40°38' W 074°12'0 0.0
2015-Mar-23 01:26N 40°38' W 074°12'0 0.0
2015-Mar-23 00:33N 40°38' W 074°12'0 0.0
2015-Mar-22 23:33N 40°38' W 074°12'0 0.0
2015-Mar-22 22:33N 40°38' W 074°12'0 0.0
2015-Mar-22 21:33N 40°38' W 074°12'0 0.0
2015-Mar-22 20:30N 40°38' W 074°12'0 0.0
2015-Mar-22 19:25N 40°38' W 074°12'0 0.0
2015-Mar-22 18:33N 40°38' W 074°12'0 0.0
2015-Mar-22 17:33N 40°38' W 074°12'0 0.0
2015-Mar-22 16:33N 40°38' W 074°12'0 0.0
2015-Mar-22 15:32N 40°38' W 074°12'0 0.0
2015-Mar-22 14:32N 40°38' W 074°12'0 0.0
2015-Mar-22 13:33N 40°38' W 074°12'0 0.0
2015-Mar-22 12:33N 40°38' W 074°12'0 0.0
2015-Mar-22 11:33N 40°38' W 074°12'0 0.0
2015-Mar-22 10:33N 40°38' W 074°12'0 0.0
2015-Mar-22 09:33N 40°38' W 074°12'0 0.0
2015-Mar-22 08:33N 40°38' W 074°12'0 0.0
2015-Mar-22 07:33N 40°38' W 074°12'0 0.0
2015-Mar-22 06:33N 40°38' W 074°12'0 0.0
2015-Mar-22 05:33N 40°38' W 074°12'0 0.0
2015-Mar-22 04:24N 40°38' W 074°12'0 0.0
2015-Mar-22 03:33N 40°38' W 074°12'0 0.0
2015-Mar-22 02:33N 40°38' W 074°12'0 0.0
2015-Mar-22 01:33N 40°38' W 074°12'0 0.0
2015-Mar-22 00:33N 40°38' W 074°12'0 0.0
2015-Mar-21 23:34N 40°38' W 074°12'0 0.0
2015-Mar-21 22:33N 40°38' W 074°12'  

Dump ship's entire track history